Time;durP1;ratioP1;P1;durP2;ratioP2;P2;SDS_P1;SDS_P2;PMS_P1;PMS_P2;Temp;Humidity;BMP_temperature;BMP_pressure;BME280_temperature;BME280_humidity;BME280_pressure;Samples;Min_cycle;Max_cycle;Signal;HPM_P1;HPM_P2
2022/04/18 00:01:44;;;;;;;7.10;6.55;;;;;;;8.07;41.75;101586.09;6093523;23;20009;-67
2022/04/18 00:04:10;;;;;;;3.83;3.70;;;;;;;7.53;40.91;101488.25;6102966;23;20047;-68
2022/04/18 00:06:37;;;;;;;5.40;5.20;;;;;;;8.00;41.13;101564.50;6097294;23;20257;-68
2022/04/18 00:09:04;;;;;;;3.72;3.63;;;;;;;8.19;41.04;101607.50;6108383;23;20029;-68
2022/04/18 00:11:30;;;;;;;4.75;4.55;;;;;;;8.04;41.36;101586.16;6095533;23;20045;-68
2022/04/18 00:13:57;;;;;;;3.70;3.60;;;;;;;8.26;41.25;101625.66;6107126;23;20475;-68
2022/04/18 00:16:24;;;;;;;3.58;3.47;;;;;;;8.23;41.90;101634.44;6098360;23;20602;-68
2022/04/18 00:18:51;;;;;;;3.60;3.50;;;;;;;7.76;40.97;101539.88;6104692;23;20139;-68
2022/04/18 00:21:18;;;;;;;3.55;3.45;;;;;;;7.76;41.52;101556.41;6118738;23;20306;-68
2022/04/18 00:23:45;;;;;;;4.40;4.20;;;;;;;8.04;40.88;101601.84;6105072;23;20054;-68
2022/04/18 00:26:12;;;;;;;4.00;3.80;;;;;;;8.03;42.08;101606.22;6102210;23;20349;-69
2022/04/18 00:28:39;;;;;;;3.45;3.35;;;;;;;7.74;42.05;101576.50;6118957;23;20089;-67
2022/04/18 00:31:05;;;;;;;4.00;3.80;;;;;;;7.69;43.49;101574.91;6097552;23;20136;-67
2022/04/18 00:33:32;;;;;;;3.60;3.50;;;;;;;7.76;43.72;101616.50;6118778;23;20082;-67
2022/04/18 00:35:58;;;;;;;3.78;3.67;;;;;;;7.64;43.21;101595.94;6100597;23;20045;-67
2022/04/18 00:38:25;;;;;;;3.80;3.70;;;;;;;7.53;44.33;101601.41;6116568;23;20506;-68
2022/04/18 00:40:51;;;;;;;3.75;3.65;;;;;;;7.33;44.74;101573.19;6088487;23;20386;-69
2022/04/18 00:43:18;;;;;;;3.80;3.70;;;;;;;7.35;43.70;101566.16;6122794;23;20120;-67
2022/04/18 00:45:44;;;;;;;5.25;4.95;;;;;;;7.17;44.21;101528.31;6088557;23;20620;-68
2022/04/18 00:48:10;;;;;;;3.95;3.75;;;;;;;7.54;44.25;101594.44;6119348;23;20087;-67
2022/04/18 00:50:37;;;;;;;5.47;5.28;;;;;;;7.51;44.56;101592.75;6081789;23;20010;-68
2022/04/18 00:53:04;;;;;;;4.00;3.80;;;;;;;7.46;43.96;101602.47;6132831;23;20035;-68
2022/04/18 00:55:33;;;;;;;5.55;5.35;;;;;;;7.45;44.71;101594.66;6077722;23;20102;-68
2022/04/18 00:58:01;;;;;;;3.67;3.58;;;;;;;7.49;44.81;101589.31;6128315;23;20124;-68
2022/04/18 01:00:28;;;;;;;4.35;4.20;;;;;;;7.09;44.31;101532.84;6083269;23;20053;-68
2022/04/18 01:02:54;;;;;;;3.55;3.45;;;;;;;6.18;44.97;101396.75;6114361;23;20021;-68
2022/04/18 01:05:21;;;;;;;3.60;3.50;;;;;;;6.89;44.49;101514.22;6082624;23;20075;-67
2022/04/18 01:07:47;;;;;;;3.70;3.60;;;;;;;7.29;44.76;101576.75;6119738;23;20036;-68
2022/04/18 01:10:14;;;;;;;3.55;3.45;;;;;;;6.95;45.59;101530.56;6095407;23;20228;-67
2022/04/18 01:12:41;;;;;;;4.93;4.72;;;;;;;7.16;45.37;101577.97;6115808;23;20009;-68
2022/04/18 01:15:08;;;;;;;3.40;3.30;;;;;;;7.10;45.00;101576.34;6082495;23;20108;-67
2022/04/18 01:17:35;;;;;;;5.15;4.95;;;;;;;7.05;46.00;101578.19;6106143;23;20025;-67
2022/04/18 01:20:01;;;;;;;3.70;3.60;;;;;;;7.10;46.38;101573.75;6093173;23;20029;-67
2022/04/18 01:22:28;;;;;;;4.57;4.38;;;;;;;7.09;46.08;101573.78;6114498;23;20020;-68
2022/04/18 01:30:28;;;;;;;3.85;3.70;;;;;;;6.84;46.37;101537.81;6076355;23;20228;-68
2022/04/18 01:33:01;;;;;;;3.47;3.38;;;;;;;6.95;46.95;101574.09;6120224;23;20033;-67
2022/04/18 01:35:27;;;;;;;4.32;4.07;;;;;;;6.92;46.65;101568.97;6091413;23;20022;-67
2022/04/18 01:37:54;;;;;;;3.45;3.35;;;;;;;6.94;46.95;101568.03;6114190;23;20084;-68
2022/04/18 01:40:20;;;;;;;3.88;3.67;;;;;;;6.87;47.00;101557.75;6081516;23;20509;-68
2022/04/18 01:42:47;;;;;;;3.88;3.72;;;;;;;6.71;46.33;101534.63;6109613;23;20373;-68
2022/04/18 01:45:13;;;;;;;3.60;3.50;;;;;;;6.91;46.23;101578.50;6091123;23;20053;-66
2022/04/18 01:47:40;;;;;;;4.85;4.65;;;;;;;6.61;46.31;101520.06;6081183;23;20085;-68
2022/04/18 01:50:07;;;;;;;3.60;3.50;;;;;;;6.64;47.38;101529.59;6094751;23;20066;-67
2022/04/18 01:52:33;;;;;;;4.60;4.40;;;;;;;6.50;47.49;101514.25;6084954;23;20413;-67
2022/04/18 01:55:00;;;;;;;3.38;3.28;;;;;;;6.76;47.74;101581.50;6084748;23;20026;-67
2022/04/18 01:57:26;;;;;;;3.83;3.70;;;;;;;6.59;47.25;101542.72;6096843;23;20108;-67
2022/04/18 01:59:53;;;;;;;3.55;3.45;;;;;;;6.68;47.21;101578.19;6087214;23;20029;-67
2022/04/18 02:02:19;;;;;;;6.63;6.15;;;;;;;6.66;48.30;101559.97;6124076;23;20013;-67
2022/04/18 02:04:48;;;;;;;4.55;4.35;;;;;;;6.62;48.54;101557.47;6095999;23;20071;-68
2022/04/18 02:07:15;;;;;;;3.50;3.40;;;;;;;6.37;47.21;101513.66;6112200;23;20085;-67
2022/04/18 02:09:41;;;;;;;4.85;4.65;;;;;;;6.58;48.53;101554.06;6086220;23;20036;-68
2022/04/18 02:12:08;;;;;;;3.58;3.47;;;;;;;6.34;48.71;101524.16;6108381;23;20029;-67
2022/04/18 02:14:35;;;;;;;5.53;5.25;;;;;;;6.44;48.85;101556.09;6079605;23;20025;-68
2022/04/18 02:17:01;;;;;;;3.47;3.38;;;;;;;6.34;49.38;101552.84;6118446;23;20088;-68
2022/04/18 02:19:28;;;;;;;3.72;3.60;;;;;;;6.24;50.30;101539.13;6085686;23;20385;-67
2022/04/18 02:21:54;;;;;;;3.55;3.45;;;;;;;6.25;49.16;101540.81;6088193;23;20017;-68
2022/04/18 02:24:21;;;;;;;3.50;3.40;;;;;;;6.17;48.53;101512.34;6099798;23;20329;-68
2022/04/18 02:26:49;;;;;;;3.70;3.60;;;;;;;6.43;48.83;101541.34;6119414;23;20340;-68
2022/04/18 02:29:16;;;;;;;3.60;3.50;;;;;;;6.32;48.89;101524.19;6083963;23;20032;-67
2022/04/18 02:34:29;;;;;;;3.90;3.75;;;;;;;6.34;48.96;101538.03;6107393;23;20481;-65
2022/04/18 02:36:56;;;;;;;3.33;3.22;;;;;;;6.21;48.73;101531.34;6098487;23;20028;-69
2022/04/18 02:39:22;;;;;;;3.70;3.60;;;;;;;5.88;49.86;101488.59;6091122;23;20026;-67
2022/04/18 02:41:53;;;;;;;3.78;3.63;;;;;;;5.38;50.15;101413.16;5981656;23;20013;-68
2022/04/18 02:44:19;;;;;;;3.60;3.50;;;;;;;5.72;49.98;101477.63;6113093;23;20025;-66
2022/04/18 02:46:48;;;;;;;4.13;3.92;;;;;;;5.67;50.31;101479.44;6121157;23;20858;-68
2022/04/18 02:49:15;;;;;;;3.55;3.45;;;;;;;5.73;50.89;101497.53;6121503;23;20549;-66
2022/04/18 02:51:41;;;;;;;5.15;4.95;;;;;;;5.48;51.58;101461.56;6119428;23;20768;-66
2022/04/18 02:54:08;;;;;;;3.60;3.50;;;;;;;5.76;50.71;101507.91;6121554;23;20466;-66
2022/04/18 02:56:34;;;;;;;5.25;5.05;;;;;;;5.76;51.73;101508.75;6116608;23;20076;-69
2022/04/18 02:59:01;;;;;;;3.50;3.40;;;;;;;5.66;51.69;101495.97;6112239;23;20022;-70
2022/04/18 03:01:27;;;;;;;3.50;3.40;;;;;;;5.73;50.69;101513.16;6108174;23;20029;-66
2022/04/18 03:03:53;;;;;;;3.30;3.20;;;;;;;4.42;51.13;101299.59;6103556;23;20014;-69
2022/04/18 03:06:20;;;;;;;3.25;3.15;;;;;;;5.67;51.04;101506.31;6106570;23;20041;-68
2022/04/18 03:08:47;;;;;;;3.22;3.13;;;;;;;5.64;51.72;101505.56;6102006;23;20249;-70
2022/04/18 03:11:13;;;;;;;3.95;3.75;;;;;;;5.51;52.83;101487.56;6104033;23;20043;-70
2022/04/18 03:13:46;;;;;;;5.45;5.15;;;;;;;5.53;53.25;101498.78;6113036;23;20085;-70
2022/04/18 03:16:13;;;;;;;3.30;3.20;;;;;;;5.49;53.31;101499.75;6082233;23;20048;-69
2022/04/18 03:18:40;;;;;;;5.07;4.88;;;;;;;5.49;53.22;101502.34;6107864;23;20010;-69
2022/04/18 03:21:06;;;;;;;3.20;3.10;;;;;;;5.08;53.53;101444.06;6125916;23;20422;-69
2022/04/18 03:23:33;;;;;;;3.45;3.35;;;;;;;5.46;53.16;101509.34;6119854;23;20020;-71
2022/04/18 03:25:59;;;;;;;3.35;3.25;;;;;;;5.40;52.49;101477.31;6120075;23;20037;-69
2022/04/18 03:28:26;;;;;;;3.47;3.38;;;;;;;5.67;51.61;101505.47;6112098;23;20119;-71
2022/04/18 03:30:53;;;;;;;3.33;3.22;;;;;;;5.78;51.52;101504.38;6117785;23;20016;-69
2022/04/18 03:33:20;;;;;;;3.30;3.20;;;;;;;4.76;50.40;101325.00;6109309;23;20013;-69
2022/04/18 03:41:17;;;;;;;3.30;3.20;;;;;;;5.74;50.71;101475.84;6119171;23;20196;-70
2022/04/18 03:43:43;;;;;;;4.90;4.70;;;;;;;5.57;50.61;101455.31;6112320;23;20162;-70
2022/04/18 03:46:10;;;;;;;3.30;3.20;;;;;;;5.56;51.76;101459.66;6114202;23;20254;-70
2022/04/18 03:48:36;;;;;;;5.03;4.82;;;;;;;5.67;51.92;101495.06;6121577;23;20135;-70
2022/04/18 03:51:03;;;;;;;3.40;3.30;;;;;;;5.52;52.60;101483.19;6117648;23;20029;-69
2022/04/18 03:53:29;;;;;;;3.80;3.65;;;;;;;5.54;52.15;101487.47;6112686;23;20080;-68
2022/04/18 03:55:55;;;;;;;3.20;3.10;;;;;;;5.49;52.51;101493.66;6120020;23;20157;-70
2022/04/18 03:58:22;;;;;;;3.40;3.30;;;;;;;5.13;52.63;101431.84;6113275;23;20039;-71
2022/04/18 04:00:48;;;;;;;3.40;3.30;;;;;;;5.46;52.85;101497.19;6099348;23;20018;-70
2022/04/18 04:03:15;;;;;;;3.50;3.40;;;;;;;5.40;53.56;101497.28;6114792;23;20302;-70
2022/04/18 04:05:41;;;;;;;4.90;4.70;;;;;;;5.38;53.75;101497.31;6108487;23;20273;-70
2022/04/18 04:08:08;;;;;;;3.45;3.35;;;;;;;4.95;53.26;101429.53;6112052;23;20454;-69
2022/04/18 04:10:34;;;;;;;5.07;4.88;;;;;;;5.29;54.44;101494.00;6106703;23;20446;-70
2022/04/18 04:13:01;;;;;;;3.30;3.20;;;;;;;5.28;54.48;101507.91;6113529;23;20021;-67
2022/04/18 04:15:27;;;;;;;3.20;3.10;;;;;;;5.20;54.27;101501.09;6108122;23;20089;-66
2022/04/18 04:17:54;;;;;;;3.40;3.30;;;;;;;5.13;55.62;101499.50;6081871;23;20029;-67
2022/04/18 04:20:22;;;;;;;3.30;3.20;;;;;;;5.07;55.45;101493.50;6119590;23;20044;-67
2022/04/18 04:22:49;;;;;;;4.40;4.20;;;;;;;5.01;55.81;101497.06;6109904;23;20037;-67
2022/04/18 04:25:15;;;;;;;3.35;3.25;;;;;;;4.85;55.73;101482.59;6093419;23;20036;-66
2022/04/18 04:27:42;;;;;;;4.95;4.75;;;;;;;4.96;56.37;101496.31;6111467;23;20018;-67
2022/04/18 04:30:08;;;;;;;3.40;3.30;;;;;;;4.72;56.42;101461.13;6115155;23;20040;-67
2022/04/18 04:32:35;;;;;;;4.85;4.65;;;;;;;4.90;56.38;101493.78;6121174;23;20029;-67
2022/04/18 04:35:03;;;;;;;3.10;3.00;;;;;;;4.82;56.58;101493.91;6105531;23;21293;-67
2022/04/18 04:37:30;;;;;;;4.38;4.20;;;;;;;4.80;56.57;101488.72;6109426;23;20093;-66
2022/04/18 04:39:56;;;;;;;3.08;2.97;;;;;;;4.83;56.82;101498.25;6112270;23;20354;-67
2022/04/18 04:42:23;;;;;;;3.50;3.40;;;;;;;4.89;56.80;101498.16;6109655;23;20361;-67
2022/04/18 04:44:49;;;;;;;3.22;3.13;;;;;;;5.00;57.14;101490.16;6113244;23;20072;-67
2022/04/18 04:47:16;;;;;;;3.50;3.30;;;;;;;5.29;56.46;101475.78;6108271;23;20044;-68
2022/04/18 04:49:42;;;;;;;4.82;4.63;;;;;;;5.79;54.81;101510.44;6109621;23;20300;-67
2022/04/18 04:52:09;;;;;;;3.33;3.22;;;;;;;5.86;54.58;101504.25;6115119;23;20038;-69
2022/04/18 04:54:35;;;;;;;5.10;4.90;;;;;;;5.95;53.79;101509.31;6110645;23;20085;-68
2022/04/18 04:57:02;;;;;;;3.30;3.20;;;;;;;5.93;53.76;101508.47;6116586;23;20613;-69
2022/04/18 04:59:28;;;;;;;3.97;3.83;;;;;;;5.95;53.78;101509.31;6107977;23;20368;-67
2022/04/18 05:01:54;;;;;;;3.28;3.17;;;;;;;5.80;53.96;101486.13;6108473;23;20089;-68
2022/04/18 05:04:25;;;;;;;3.45;3.30;;;;;;;6.01;53.56;101518.72;6111684;23;20038;-68
2022/04/18 05:06:52;;;;;;;3.38;3.28;;;;;;;6.07;53.95;101517.75;6105520;23;20368;-68
2022/04/18 05:09:18;;;;;;;3.40;3.30;;;;;;;5.97;53.44;101496.22;6110574;23;20092;-68
2022/04/18 05:11:46;;;;;;;4.55;4.35;;;;;;;6.00;53.23;101485.75;6080186;23;20475;-67
2022/04/18 05:14:14;;;;;;;3.80;3.60;;;;;;;6.24;53.04;101518.28;6099778;23;20040;-67
2022/04/18 05:16:42;;;;;;;4.85;4.65;;;;;;;6.24;53.14;101510.47;6110846;23;20021;-71
2022/04/18 05:19:08;;;;;;;3.40;3.30;;;;;;;6.20;52.77;101495.78;6100632;23;20097;-68
2022/04/18 05:21:34;;;;;;;5.22;5.03;;;;;;;6.23;52.34;101489.63;6106043;23;20065;-67
2022/04/18 05:24:01;;;;;;;3.30;3.20;;;;;;;6.52;52.83;101520.28;6112275;23;20014;-67
2022/04/18 05:26:28;;;;;;;3.97;3.83;;;;;;;5.05;52.07;101262.03;6108275;23;20097;-68
2022/04/18 05:28:54;;;;;;;3.50;3.40;;;;;;;6.71;51.80;101524.19;6115792;23;20450;-67
2022/04/18 05:31:20;;;;;;;3.38;3.28;;;;;;;7.02;51.09;101522.63;6114824;23;20641;-67
2022/04/18 05:33:47;;;;;;;4.43;4.22;;;;;;;7.35;49.63;101518.31;6109457;23;20023;-67
2022/04/18 05:36:13;;;;;;;3.50;3.40;;;;;;;7.79;48.08;101518.88;6116192;23;20096;-68
2022/04/18 05:38:40;;;;;;;5.15;4.95;;;;;;;8.29;47.71;101518.34;6106726;23;20272;-68
2022/04/18 05:41:06;;;;;;;3.60;3.50;;;;;;;8.27;46.69;101479.16;6105810;23;20637;-68
2022/04/18 05:43:33;;;;;;;5.10;4.90;;;;;;;8.55;45.55;101473.13;6088283;23;20013;-68
2022/04/18 05:46:04;;;;;;;4.00;3.80;;;;;;;9.61;45.09;101529.00;6116361;23;20049;-68
2022/04/18 05:48:30;;;;;;;4.40;4.20;;;;;;;9.54;44.54;101505.66;6084588;23;20021;-67
2022/04/18 05:50:57;;;;;;;4.10;3.90;;;;;;;9.35;44.32;101528.97;6104286;23;20036;-68
2022/04/18 05:53:26;;;;;;;3.85;3.65;;;;;;;7.74;45.01;101320.44;6116443;23;20072;-68
2022/04/18 05:55:52;;;;;;;3.70;3.60;;;;;;;8.89;45.85;101533.09;6107109;23;20432;-68
2022/04/18 05:58:19;;;;;;;4.00;3.80;;;;;;;8.55;46.52;101510.59;6105703;23;20006;-68
2022/04/18 06:00:45;;;;;;;4.80;4.60;;;;;;;8.30;47.46;101471.25;6114279;23;20016;-68
2022/04/18 06:03:12;;;;;;;4.20;4.00;;;;;;;8.58;47.41;101534.06;6113820;23;20439;-68
2022/04/18 06:05:38;;;;;;;5.30;5.05;;;;;;;8.29;48.17;101500.06;6105166;23;20079;-67
2022/04/18 06:08:05;;;;;;;4.03;3.83;;;;;;;8.42;48.65;101524.97;6108385;23;20244;-67
2022/04/18 06:10:31;;;;;;;4.00;3.80;;;;;;;8.19;48.40;101475.94;6115401;23;20029;-67
2022/04/18 06:12:58;;;;;;;3.80;3.70;;;;;;;8.51;47.95;101524.69;6100097;23;20032;-67
2022/04/18 06:15:24;;;;;;;3.88;3.67;;;;;;;7.47;47.38;101348.22;6112246;23;20025;-68
2022/04/18 06:17:51;;;;;;;4.03;3.83;;;;;;;8.57;48.25;101518.41;6098772;23;20184;-68
2022/04/18 06:20:17;;;;;;;4.07;3.88;;;;;;;8.82;47.28;101538.56;6116757;23;20088;-68
2022/04/18 06:22:44;;;;;;;4.90;4.70;;;;;;;8.98;47.64;101545.06;6087518;23;20283;-67
2022/04/18 06:25:10;;;;;;;3.70;3.60;;;;;;;9.07;46.94;101542.13;6113974;23;20115;-69
2022/04/18 06:27:37;;;;;;;5.93;5.65;;;;;;;9.16;45.23;101530.50;6099496;23;20014;-68
2022/04/18 06:30:03;;;;;;;3.70;3.60;;;;;;;9.21;45.71;101523.34;6089142;23;20029;-68
2022/04/18 06:32:34;;;;;;;4.80;4.60;;;;;;;9.19;45.51;101512.06;6103210;23;20059;-70
2022/04/18 06:35:00;;;;;;;3.70;3.60;;;;;;;9.43;45.33;101544.44;6112856;23;20018;-70
2022/04/18 06:37:27;;;;;;;3.65;3.55;;;;;;;9.56;45.58;101537.88;6115113;23;20136;-68
2022/04/18 06:39:53;;;;;;;4.07;3.88;;;;;;;9.44;45.39;101498.13;6103784;23;20025;-68
2022/04/18 06:42:20;;;;;;;4.22;4.03;;;;;;;9.74;45.02;101544.25;6114312;23;20031;-68
2022/04/18 06:44:46;;;;;;;4.68;4.47;;;;;;;9.55;44.68;101512.59;6113303;23;20104;-69
2022/04/18 06:47:13;;;;;;;3.80;3.70;;;;;;;9.87;44.75;101536.81;6110456;23;20270;-69
2022/04/18 06:49:39;;;;;;;4.97;4.78;;;;;;;9.63;44.62;101485.25;6118471;23;20357;-69
2022/04/18 06:52:06;;;;;;;3.72;3.63;;;;;;;9.81;43.38;101526.53;6115344;23;20028;-69
2022/04/18 06:54:32;;;;;;;5.65;5.38;;;;;;;9.94;44.22;101532.19;6108822;23;20085;-66
2022/04/18 06:56:59;;;;;;;4.20;4.00;;;;;;;10.16;43.11;101540.13;6114138;23;20096;-69
2022/04/18 06:59:29;;;;;;;4.03;3.83;;;;;;;10.31;43.81;101544.00;6110793;23;20035;-69
2022/04/18 07:01:58;;;;;;;3.70;3.60;;;;;;;10.40;43.91;101534.91;6115798;23;20124;-69
2022/04/18 07:04:25;;;;;;;4.00;3.80;;;;;;;10.50;42.61;101538.88;6099544;23;20016;-69
2022/04/18 07:06:52;;;;;;;3.80;3.70;;;;;;;10.47;42.33;101529.38;6105928;23;20912;-68
2022/04/18 07:09:19;;;;;;;4.22;4.03;;;;;;;10.62;42.41;101546.28;6106717;23;20049;-68
2022/04/18 07:11:45;;;;;;;4.65;4.45;;;;;;;10.61;42.67;101530.63;6111450;23;20548;-69
2022/04/18 07:14:13;;;;;;;3.90;3.70;;;;;;;10.80;42.50;101538.63;6121998;23;20040;-70
2022/04/18 07:16:41;;;;;;;5.30;5.10;;;;;;;10.89;42.40;101543.50;6099134;23;20414;-70
2022/04/18 07:19:08;;;;;;;4.00;3.85;;;;;;;10.98;41.48;101545.75;6109476;23;20248;-70
2022/04/18 07:21:34;;;;;;;5.45;5.25;;;;;;;9.98;42.99;101371.22;6112604;23;20442;-69
2022/04/18 07:24:01;;;;;;;4.32;4.10;;;;;;;10.60;41.43;101458.88;6109515;23;20181;-70
2022/04/18 07:26:28;;;;;;;4.57;4.38;;;;;;;10.89;41.04;101498.88;6092482;23;20254;-70
2022/04/18 07:28:55;;;;;;;4.60;4.40;;;;;;;11.31;41.50;101545.31;6111898;23;20021;-70
2022/04/18 07:31:21;;;;;;;4.20;4.00;;;;;;;11.09;40.69;101506.78;6109996;23;20466;-70
2022/04/18 07:33:48;;;;;;;4.10;3.90;;;;;;;11.36;40.53;101532.81;6100689;23;20470;-69
2022/04/18 07:36:14;;;;;;;4.00;3.80;;;;;;;11.56;41.56;101545.97;6082078;23;20485;-70
2022/04/18 07:38:50;;;;;;;5.55;5.35;;;;;;;11.24;40.18;101483.41;6084106;23;20064;-70
2022/04/18 07:41:26;;;;;;;4.20;4.00;;;;;;;11.46;40.41;101504.38;6109336;23;20096;-70
2022/04/18 07:43:54;;;;;;;4.15;3.95;;;;;;;11.81;39.92;101547.56;6109401;23;21013;-70
2022/04/18 07:46:21;;;;;;;4.40;4.20;;;;;;;11.86;40.55;101549.97;6120952;23;20427;-69
2022/04/18 07:48:49;;;;;;;4.15;3.95;;;;;;;11.94;40.07;101546.09;6109617;23;20021;-69
2022/04/18 07:51:34;;;;;;;4.30;4.10;;;;;;;11.75;39.61;101489.97;6117950;23;20360;-69
2022/04/18 07:54:03;;;;;;;4.18;3.97;;;;;;;12.05;39.58;101539.53;6102022;23;20021;-71
2022/04/18 07:56:29;;;;;;;4.38;4.18;;;;;;;12.18;39.48;101544.16;6102743;23;20040;-68
2022/04/18 07:58:56;;;;;;;4.25;4.05;;;;;;;12.22;39.06;101536.97;6113466;23;20070;-68
2022/04/18 08:01:28;;;;;;;4.90;4.70;;;;;;;12.25;39.15;101525.44;6089444;23;20018;-68
2022/04/18 08:03:57;;;;;;;4.20;4.00;;;;;;;12.38;38.62;101539.75;6114864;23;20014;-67
2022/04/18 08:06:23;;;;;;;4.20;4.00;;;;;;;12.50;38.41;101530.44;6107554;23;20047;-69
2022/04/18 08:08:49;;;;;;;4.53;4.32;;;;;;;12.46;38.40;101528.88;6104510;23;20084;-68
2022/04/18 08:11:16;;;;;;;4.60;4.40;;;;;;;12.60;39.23;101533.50;6107151;23;20021;-68
2022/04/18 08:13:43;;;;;;;5.93;5.63;;;;;;;12.64;38.62;101530.63;6109860;23;20037;-68
2022/04/18 08:16:13;;;;;;;4.18;3.97;;;;;;;12.54;37.80;101524.94;6107655;23;20037;-70
2022/04/18 08:18:44;;;;;;;5.43;5.22;;;;;;;12.68;39.19;101532.19;6099165;23;20009;-68
2022/04/18 08:21:12;;;;;;;4.10;3.90;;;;;;;12.98;38.87;101526.38;6107994;23;20037;-69
2022/04/18 08:23:39;;;;;;;12.90;5.47;;;;;;;12.68;39.91;101447.91;6088783;23;20022;-69
2022/04/18 08:26:05;;;;;;;4.35;4.15;;;;;;;13.05;38.07;101517.25;6110881;23;20033;-69
2022/04/18 08:28:32;;;;;;;5.00;4.80;;;;;;;13.25;38.51;101513.63;6102992;23;20458;-69
2022/04/18 08:30:59;;;;;;;4.40;4.20;;;;;;;13.19;37.85;101513.94;6096781;23;20109;-69
2022/04/18 08:33:28;;;;;;;4.45;4.25;;;;;;;13.13;37.35;101511.59;6097298;23;20510;-68
2022/04/18 08:35:54;;;;;;;4.97;4.78;;;;;;;13.09;37.75;101471.38;6096467;23;20052;-68
2022/04/18 08:38:20;;;;;;;4.28;4.07;;;;;;;13.45;36.67;101525.84;6087883;23;20422;-68
2022/04/18 08:40:49;;;;;;;5.00;4.80;;;;;;;13.76;37.60;101505.78;6106984;23;20202;-69
2022/04/18 08:43:17;;;;;;;4.50;4.30;;;;;;;13.92;36.55;101509.28;6116923;23;20081;-68
2022/04/18 08:45:43;;;;;;;5.90;5.65;;;;;;;13.99;36.63;101501.03;6077824;23;20188;-68
2022/04/18 08:53:40;;;;;;;5.70;5.43;;;;;;;14.13;35.31;101482.69;6095395;23;20446;-68
2022/04/18 08:56:07;;;;;;;4.40;4.20;;;;;;;14.29;36.28;101502.03;6109457;23;20141;-70
2022/04/18 08:58:34;;;;;;;5.57;5.32;;;;;;;14.47;35.10;101491.38;6108569;23;20038;-68
2022/04/18 09:01:01;;;;;;;4.38;4.18;;;;;;;14.69;35.25;101504.25;6126187;23;20076;-68
2022/04/18 09:03:36;;;;;;;;;;;;;;;14.85;34.93;101502.44;6066223;23;20380;-68
2022/04/18 09:06:11;;;;;;;4.85;4.45;;;;;;;15.01;34.52;101491.84;6102020;23;19937;-68
2022/04/18 09:08:52;;;;;;;5.95;5.65;;;;;;;15.21;33.81;101495.13;6115222;23;20025;-68
2022/04/18 09:11:36;;;;;;;4.53;4.32;;;;;;;15.06;35.57;101494.25;6112896;23;20102;-69
2022/04/18 09:14:05;;;;;;;4.60;4.40;;;;;;;15.30;34.12;101492.78;6084874;23;20096;-68
2022/04/18 09:16:32;;;;;;;5.30;5.10;;;;;;;15.49;32.99;101495.16;6096661;23;20023;-68
2022/04/18 09:19:16;;;;;;;4.55;4.35;;;;;;;15.50;33.71;101499.53;6114448;23;20558;-68
2022/04/18 09:21:44;;;;;;;5.93;5.63;;;;;;;15.31;34.18;101449.50;6097371;23;20183;-68
2022/04/18 09:24:43;;;;;;;4.57;4.38;;;;;;;15.77;35.31;101480.28;6113767;23;20009;-70
2022/04/18 09:27:29;;;;;;;5.07;4.82;;;;;;;15.78;34.25;101482.00;6054785;23;20096;-68
2022/04/18 09:30:07;;;;;;;4.70;4.50;;;;;;;15.76;32.27;101483.91;6114028;23;20447;-69
2022/04/18 09:32:34;;;;;;;6.00;5.70;;;;;;;16.03;33.36;101477.84;6101444;23;20022;-68
2022/04/18 09:35:04;;;;;;;4.65;4.45;;;;;;;16.07;32.66;101455.50;6098977;23;20026;-68
2022/04/18 09:37:32;;;;;;;5.68;5.45;;;;;;;16.38;32.00;101480.03;6087481;23;20543;-67
2022/04/18 09:39:59;;;;;;;4.97;4.78;;;;;;;16.50;31.97;101484.56;6091309;23;20033;-70
2022/04/18 09:42:27;;;;;;;4.57;4.38;;;;;;;16.59;32.08;101473.34;6082012;23;20087;-72
2022/04/18 09:44:54;;;;;;;4.63;4.43;;;;;;;16.16;32.67;101415.22;6108436;23;20068;-68
2022/04/18 09:47:23;;;;;;;5.00;4.80;;;;;;;16.65;33.32;101458.84;6113368;23;20049;-69
2022/04/18 09:49:50;;;;;;;4.78;4.57;;;;;;;16.88;30.90;101466.19;6108129;23;20652;-69
2022/04/18 09:52:18;;;;;;;5.47;5.28;;;;;;;16.56;30.79;101436.47;6123421;23;20219;-67
2022/04/18 09:54:53;;;;;;;6.30;6.00;;;;;;;16.53;31.43;101436.66;6106818;23;20092;-67
2022/04/18 09:57:22;;;;;;;4.70;4.50;;;;;;;16.78;30.52;101467.72;6115174;23;20371;-70
2022/04/18 09:59:52;;;;;;;5.25;5.05;;;;;;;16.82;30.89;101460.41;6094181;23;20033;-71
2022/04/18 10:02:20;;;;;;;4.80;4.60;;;;;;;16.43;30.99;101377.28;6111790;23;20520;-69
2022/04/18 10:04:47;;;;;;;5.30;5.10;;;;;;;16.35;29.47;101436.91;6111555;23;20255;-69
2022/04/18 10:07:14;;;;;;;4.80;4.60;;;;;;;16.45;29.38;101429.22;6114019;23;20030;-71
2022/04/18 10:09:42;;;;;;;6.00;5.70;;;;;;;16.64;30.21;101447.41;6096631;23;20098;-70
2022/04/18 10:12:10;;;;;;;4.72;4.53;;;;;;;16.60;30.89;101440.63;6113210;23;20096;-69
2022/04/18 10:14:38;;;;;;;6.72;6.43;;;;;;;16.42;32.50;101410.88;6106359;23;20077;-69
2022/04/18 10:17:07;;;;;;;4.80;4.60;;;;;;;17.00;30.17;101432.69;6098647;23;20028;-69
2022/04/18 10:19:58;;;;;;;5.55;5.30;;;;;;;17.26;29.58;101432.69;6105733;23;20084;-69
2022/04/18 10:22:40;;;;;;;5.47;5.10;;;;;;;17.39;28.07;101438.88;6113113;23;20095;-69
2022/04/18 10:25:27;;;;;;;5.00;4.80;;;;;;;17.36;27.65;101425.81;6115745;23;20094;-71
2022/04/18 10:28:08;;;;;;;4.78;4.57;;;;;;;17.50;28.35;101425.72;6092020;23;20096;-69
2022/04/18 10:30:44;;;;;;;6.10;5.80;;;;;;;17.26;28.36;101372.56;6111004;23;20160;-70
2022/04/18 10:33:12;;;;;;;5.10;4.90;;;;;;;17.51;28.70;101402.66;6099118;23;20038;-70
2022/04/18 10:36:01;;;;;;;6.00;5.70;;;;;;;17.77;27.36;101421.22;6089356;23;20516;-70
2022/04/18 10:38:33;;;;;;;5.60;5.30;;;;;;;17.42;27.09;101364.38;6109819;23;20078;-67
2022/04/18 10:41:15;;;;;;;4.97;4.75;;;;;;;18.01;27.66;101416.84;6103866;23;20112;-70
2022/04/18 10:43:53;;;;;;;6.33;6.03;;;;;;;17.82;25.50;101425.25;6109346;23;20025;-68
2022/04/18 10:46:20;;;;;;;4.90;4.70;;;;;;;18.02;26.64;101425.63;6114117;23;20360;-68
2022/04/18 10:48:58;;;;;;;5.55;5.25;;;;;;;18.33;26.19;101418.97;6090055;23;20096;-68
2022/04/18 10:51:38;;;;;;;5.13;4.93;;;;;;;18.13;24.93;101391.19;6100785;23;20036;-68
2022/04/18 10:54:06;;;;;;;5.50;5.25;;;;;;;18.29;26.15;101375.81;6090673;23;20349;-68
2022/04/18 10:56:54;;;;;;;6.20;5.90;;;;;;;18.29;24.81;101418.31;6111799;23;20092;-68
2022/04/18 10:59:28;;;;;;;4.70;4.50;;;;;;;18.35;25.68;101419.69;6088782;23;20143;-68
2022/04/18 11:02:04;;;;;;;5.20;5.00;;;;;;;18.27;24.76;101420.25;6114348;23;20026;-68
2022/04/18 11:04:40;;;;;;;5.72;5.43;;;;;;;18.36;25.71;101404.59;6108770;23;20027;-68
2022/04/18 11:07:08;;;;;;;5.00;4.80;;;;;;;17.86;25.12;101399.34;6109432;23;20442;-68
2022/04/18 11:09:46;;;;;;;6.00;5.70;;;;;;;17.87;24.94;101399.22;6110470;23;20039;-68
2022/04/18 11:12:20;;;;;;;5.07;4.88;;;;;;;17.94;24.51;101405.81;6107312;23;20278;-68
2022/04/18 11:15:00;;;;;;;5.85;5.55;;;;;;;17.40;25.07;101301.72;6104358;23;20376;-70
2022/04/18 11:17:37;;;;;;;4.97;4.78;;;;;;;18.18;25.20;101399.69;6107886;23;20031;-69
2022/04/18 11:20:28;;;;;;;4.85;4.65;;;;;;;18.16;24.46;101345.78;6104885;23;20041;-70
2022/04/18 11:23:27;;;;;;;5.05;4.85;;;;;;;18.79;23.65;101399.59;6111491;23;20203;-70
2022/04/18 11:25:56;;;;;;;5.22;5.00;;;;;;;18.36;24.06;101409.91;6109202;23;20086;-69
2022/04/18 11:28:30;;;;;;;5.00;4.80;;;;;;;17.37;25.20;101220.56;6103714;23;20045;-73
2022/04/18 11:30:56;;;;;;;5.15;4.95;;;;;;;17.84;25.11;101372.91;6114645;23;20017;-71
2022/04/18 11:33:23;;;;;;;5.20;5.00;;;;;;;17.97;24.79;101356.09;6108075;23;20017;-71
2022/04/18 11:35:50;;;;;;;5.10;4.90;;;;;;;17.93;24.52;101308.50;6079900;23;21576;-72
2022/04/18 11:38:16;;;;;;;4.90;4.70;;;;;;;18.53;25.29;101390.91;6089760;23;20021;-70
2022/04/18 11:40:44;;;;;;;6.70;6.40;;;;;;;18.74;23.29;101386.63;6094010;23;20014;-70
2022/04/18 11:43:12;;;;;;;5.25;5.05;;;;;;;18.88;25.26;101374.09;6111010;23;20037;-70
2022/04/18 11:45:39;;;;;;;6.53;6.22;;;;;;;19.06;26.56;101362.09;6109483;23;20158;-70
2022/04/18 11:48:07;;;;;;;5.22;5.03;;;;;;;19.36;24.81;101367.78;6100822;23;20470;-70
2022/04/18 11:50:37;;;;;;;7.20;6.85;;;;;;;18.96;24.24;101371.72;6108823;23;20080;-70
2022/04/18 11:53:06;;;;;;;5.05;4.85;;;;;;;19.33;24.94;101363.53;6109522;23;20014;-70
2022/04/18 11:55:43;;;;;;;6.50;6.20;;;;;;;19.33;24.16;101363.53;6112136;23;20463;-70